Time;durP1;ratioP1;P1;durP2;ratioP2;P2;SDS_P1;SDS_P2;PMS_P1;PMS_P2;Temp;Humidity;BMP_temperature;BMP_pressure;BME280_temperature;BME280_humidity;BME280_pressure;Samples;Min_cycle;Max_cycle;Signal;HPM_P1;HPM_P2
2022/12/22 03:26:29;;;;;;;1.35;1.25;;;16.30;50.10;;;;;;5015571;28;20282;-68
2022/12/22 03:28:56;;;;;;;1.20;1.17;;;16.30;50.00;;;;;;5015998;28;20219;-69
2022/12/22 03:31:23;;;;;;;1.27;1.20;;;16.30;50.00;;;;;;5015602;28;20200;-69
2022/12/22 03:33:51;;;;;;;1.20;1.13;;;16.30;50.10;;;;;;4999511;28;20242;-68
2022/12/22 03:36:19;;;;;;;1.15;1.15;;;16.30;50.00;;;;;;5015532;28;20210;-69
2022/12/22 03:38:46;;;;;;;1.05;1.05;;;16.30;50.00;;;;;;5015360;28;20216;-69
2022/12/22 03:46:29;;;;;;;1.20;1.10;;;16.30;49.90;;;;;;5015364;28;20196;-68
2022/12/22 03:46:44;;;;;;;1.88;1.10;;;16.30;49.90;;;;;;5015419;28;20247;-68
2022/12/22 03:49:13;;;;;;;1.20;1.10;;;16.20;49.90;;;;;;5015327;28;20220;-69
2022/12/22 03:51:42;;;;;;;1.20;1.20;;;16.30;50.00;;;;;;5015373;28;20200;-68
2022/12/22 03:54:09;;;;;;;1.33;1.23;;;16.30;50.00;;;;;;5015541;28;20245;-69
2022/12/22 03:56:37;;;;;;;1.20;1.15;;;16.20;49.90;;;;;;5033302;28;20234;-69
2022/12/22 03:59:04;;;;;;;1.38;1.10;;;16.20;49.90;;;;;;5015362;28;20216;-69
2022/12/22 04:01:31;;;;;;;1.08;1.08;;;16.20;49.90;;;;;;5033189;28;20188;-69
2022/12/22 04:03:58;;;;;;;2.65;1.20;;;16.20;50.00;;;;;;5016300;28;20248;-68
2022/12/22 04:06:27;;;;;;;1.33;1.10;;;16.20;49.90;;;;;;5015221;28;20200;-69
2022/12/22 04:08:54;;;;;;;1.50;1.20;;;16.30;50.00;;;;;;5017056;28;20219;-69
2022/12/22 04:14:06;;;;;;;1.08;1.08;;;16.20;50.00;;;;;;5018691;28;20299;-69
2022/12/22 04:16:33;;;;;;;1.30;1.20;;;16.20;50.00;;;;;;5018838;28;20192;-69
2022/12/22 04:19:00;;;;;;;1.40;1.30;;;16.20;50.00;;;;;;5018646;28;20532;-69
2022/12/22 04:21:28;;;;;;;1.08;1.08;;;16.20;50.10;;;;;;5018777;28;20559;-69
2022/12/22 04:23:55;;;;;;;0.90;0.90;;;16.20;50.10;;;;;;5036321;28;20192;-69
2022/12/22 04:26:23;;;;;;;1.10;1.00;;;16.30;50.20;;;;;;5036534;28;20188;-69
2022/12/22 04:28:50;;;;;;;1.27;1.10;;;16.30;50.20;;;;;;5018392;28;20216;-68
2022/12/22 04:31:17;;;;;;;1.30;1.20;;;16.30;50.00;;;;;;5018548;28;20561;-69
2022/12/22 04:33:44;;;;;;;0.90;0.90;;;16.30;50.00;;;;;;5018937;28;20204;-69
2022/12/22 04:36:11;;;;;;;1.02;1.02;;;16.30;50.00;;;;;;5019328;28;20200;-69
2022/12/22 04:38:40;;;;;;;1.05;1.05;;;16.30;49.90;;;;;;5018234;28;20219;-69
2022/12/22 04:41:07;;;;;;;1.60;1.42;;;16.40;49.90;;;;;;5002345;28;20212;-69
2022/12/22 04:43:34;;;;;;;0.98;0.98;;;16.40;49.90;;;;;;5036043;28;20192;-69
2022/12/22 04:46:02;;;;;;;1.10;1.10;;;16.40;49.80;;;;;;5018885;28;20214;-69
2022/12/22 04:48:29;;;;;;;1.00;1.00;;;16.40;49.80;;;;;;5018833;28;20236;-69
2022/12/22 04:50:57;;;;;;;1.10;1.10;;;16.50;49.80;;;;;;5036245;28;20196;-69
2022/12/22 04:53:25;;;;;;;1.45;1.35;;;16.50;49.70;;;;;;5018391;28;20227;-69
2022/12/22 04:55:56;;;;;;;1.13;0.90;;;16.50;49.70;;;;;;5018045;28;20542;-68
2022/12/22 04:58:23;;;;;;;1.75;1.10;;;16.50;49.60;;;;;;5018078;28;20224;-68
2022/12/22 05:00:50;;;;;;;1.20;1.10;;;16.50;49.60;;;;;;5018087;28;20207;-68
2022/12/22 05:03:17;;;;;;;1.00;1.00;;;16.50;49.60;;;;;;5018441;28;20254;-68
2022/12/22 05:05:44;;;;;;;0.95;0.95;;;16.50;49.60;;;;;;5018219;28;20196;-68
2022/12/22 05:08:11;;;;;;;1.20;1.10;;;16.60;50.20;;;;;;5017994;28;20207;-68
2022/12/22 05:10:38;;;;;;;1.08;0.95;;;16.60;49.60;;;;;;5018372;28;20192;-68
2022/12/22 05:13:06;;;;;;;1.65;0.90;;;16.60;49.70;;;;;;5018119;28;20205;-68
2022/12/22 05:15:34;;;;;;;1.52;1.08;;;16.60;49.60;;;;;;5018399;28;20197;-69
2022/12/22 05:18:01;;;;;;;1.10;1.00;;;16.60;49.70;;;;;;5018516;28;20227;-69
2022/12/22 05:20:28;;;;;;;1.23;1.10;;;16.60;49.70;;;;;;5018335;28;20219;-69
2022/12/22 05:22:55;;;;;;;1.17;1.08;;;16.60;49.70;;;;;;5035658;28;20196;-69
2022/12/22 05:25:22;;;;;;;1.10;1.10;;;16.60;49.60;;;;;;5041338;28;20189;-69
2022/12/22 05:27:50;;;;;;;0.93;0.93;;;16.60;49.60;;;;;;5018300;28;20230;-68
2022/12/22 05:30:19;;;;;;;1.30;1.20;;;16.60;49.60;;;;;;5035792;28;20619;-69
2022/12/22 05:32:46;;;;;;;1.30;1.20;;;16.70;49.40;;;;;;5018146;28;20775;-69
2022/12/22 05:35:14;;;;;;;1.20;1.10;;;16.70;49.50;;;;;;5036096;28;20202;-69
2022/12/22 05:37:41;;;;;;;1.23;1.20;;;16.80;49.40;;;;;;5017425;28;20222;-68
2022/12/22 05:40:09;;;;;;;1.17;1.08;;;16.80;49.50;;;;;;5035402;28;20208;-68
2022/12/22 05:42:36;;;;;;;1.27;1.17;;;16.80;49.50;;;;;;5017593;28;20574;-68
2022/12/22 05:45:04;;;;;;;1.42;1.33;;;16.90;49.70;;;;;;5017364;28;20203;-68
2022/12/22 05:47:33;;;;;;;1.40;1.30;;;16.90;49.80;;;;;;5017480;28;20212;-68
2022/12/22 05:50:00;;;;;;;2.45;1.20;;;16.90;49.90;;;;;;5035278;28;20290;-68
2022/12/22 05:52:27;;;;;;;2.05;1.02;;;16.90;50.10;;;;;;5034691;28;20290;-68
2022/12/22 05:54:54;;;;;;;1.17;1.08;;;17.00;50.40;;;;;;5001029;28;20238;-69
2022/12/22 05:57:21;;;;;;;2.30;1.00;;;17.00;50.60;;;;;;5017223;28;20211;-69
2022/12/22 05:59:48;;;;;;;1.10;1.10;;;17.10;50.80;;;;;;5017429;28;20216;-68
2022/12/22 06:02:15;;;;;;;1.38;1.27;;;17.10;50.20;;;;;;5017097;28;20204;-68
2022/12/22 06:04:43;;;;;;;1.00;1.00;;;17.10;50.40;;;;;;5016830;28;20200;-68
2022/12/22 06:07:11;;;;;;;1.35;1.10;;;17.20;50.80;;;;;;5034742;28;20196;-68
2022/12/22 06:09:37;;;;;;;1.63;1.05;;;17.20;51.00;;;;;;5017189;28;20286;-69
2022/12/22 06:12:05;;;;;;;2.38;1.27;;;17.20;50.70;;;;;;5034541;28;20188;-68
2022/12/22 06:14:32;;;;;;;1.75;1.30;;;17.20;51.10;;;;;;5016927;28;20255;-68
2022/12/22 06:16:59;;;;;;;1.08;1.00;;;17.30;50.80;;;;;;5016760;28;20192;-68
2022/12/22 06:19:26;;;;;;;1.17;1.05;;;17.30;50.20;;;;;;5016666;28;20224;-68
2022/12/22 06:21:54;;;;;;;0.90;0.90;;;17.30;49.10;;;;;;5016877;28;20200;-68
2022/12/22 06:24:21;;;;;;;1.17;1.13;;;17.40;48.50;;;;;;5034896;28;20654;-69
2022/12/22 06:26:48;;;;;;;2.03;1.02;;;17.40;48.20;;;;;;5017124;28;20206;-69
2022/12/22 06:29:15;;;;;;;1.52;1.40;;;17.40;48.20;;;;;;5034286;28;20212;-68
2022/12/22 06:31:42;;;;;;;0.93;0.90;;;17.50;48.20;;;;;;5034320;28;20200;-68
2022/12/22 06:34:09;;;;;;;0.95;0.90;;;17.50;48.00;;;;;;5016855;28;20192;-68
2022/12/22 06:36:37;;;;;;;1.98;1.05;;;17.50;47.90;;;;;;5016669;28;20212;-68
2022/12/22 06:39:07;;;;;;;1.50;0.95;;;17.50;47.80;;;;;;5034561;28;20618;-68
2022/12/22 06:44:18;;;;;;;3.20;1.30;;;17.50;47.60;;;;;;5017878;28;20199;-69
2022/12/22 06:46:45;;;;;;;1.90;0.90;;;17.50;47.60;;;;;;5020125;28;20287;-69
2022/12/22 06:49:12;;;;;;;1.42;1.10;;;17.50;47.40;;;;;;5017099;28;20756;-68
2022/12/22 06:51:39;;;;;;;1.10;1.00;;;17.50;47.70;;;;;;5018930;28;20546;-68
2022/12/22 06:54:07;;;;;;;1.10;1.00;;;17.40;47.80;;;;;;5017491;28;20243;-68
2022/12/22 06:56:34;;;;;;;1.15;1.08;;;17.50;47.90;;;;;;5034967;28;20184;-68
2022/12/22 06:59:03;;;;;;;0.90;0.90;;;17.50;48.00;;;;;;5016442;28;20252;-68
2022/12/22 07:01:30;;;;;;;1.13;1.00;;;17.40;47.90;;;;;;5034357;28;20662;-68
2022/12/22 07:03:57;;;;;;;1.05;0.80;;;17.40;48.00;;;;;;5034281;28;20191;-68
2022/12/22 07:06:25;;;;;;;1.52;1.00;;;17.40;48.00;;;;;;5016084;28;20200;-68
2022/12/22 07:08:52;;;;;;;1.55;0.90;;;17.40;48.00;;;;;;5016266;28;20220;-68
2022/12/22 07:11:20;;;;;;;1.50;1.13;;;17.40;48.70;;;;;;5016900;28;20202;-68
2022/12/22 07:13:47;;;;;;;1.50;1.20;;;17.40;48.10;;;;;;5015965;28;20242;-68
2022/12/22 07:16:14;;;;;;;1.52;1.20;;;17.40;48.10;;;;;;5015890;28;20200;-68
2022/12/22 07:18:42;;;;;;;1.10;1.00;;;17.40;48.10;;;;;;5015829;28;20215;-68
2022/12/22 07:21:10;;;;;;;2.08;0.90;;;17.40;48.00;;;;;;5033566;28;20219;-68
2022/12/22 07:23:37;;;;;;;1.15;1.05;;;17.40;48.00;;;;;;5016050;28;20207;-68
2022/12/22 07:26:04;;;;;;;1.17;1.00;;;17.40;47.90;;;;;;5015593;28;20196;-68
2022/12/22 07:28:34;;;;;;;1.92;1.10;;;17.50;48.00;;;;;;5015719;28;20220;-68
2022/12/22 07:31:01;;;;;;;1.58;1.05;;;17.50;47.90;;;;;;5015778;28;20200;-68
2022/12/22 07:33:28;;;;;;;1.13;1.00;;;17.50;47.80;;;;;;5015601;28;20663;-68
2022/12/22 07:36:06;;;;;;;1.20;1.10;;;17.50;47.80;;;;;;5015727;28;20196;-68
2022/12/22 07:38:35;;;;;;;2.42;1.10;;;17.50;47.70;;;;;;5015869;28;20234;-67
2022/12/22 07:41:02;;;;;;;0.98;0.98;;;17.50;47.70;;;;;;5015466;28;20212;-67
2022/12/22 07:43:28;;;;;;;1.10;1.00;;;17.50;47.60;;;;;;5016470;28;20200;-67
2022/12/22 07:45:57;;;;;;;2.17;1.05;;;17.50;47.60;;;;;;5080131;22;20589;-70
2022/12/22 07:51:08;;;;;;;1.27;1.17;;;17.60;47.60;;;;;;5078943;28;20641;-69
2022/12/22 07:53:35;;;;;;;1.80;1.20;;;17.60;47.60;;;;;;5078713;28;20676;-71
2022/12/22 07:56:04;;;;;;;1.25;1.10;;;17.60;47.80;;;;;;5061375;28;20244;-72
2022/12/22 07:58:31;;;;;;;1.17;1.08;;;17.50;47.70;;;;;;5060226;28;20211;-72
2022/12/22 08:01:00;;;;;;;1.88;1.10;;;17.60;47.90;;;;;;5042655;28;20214;-72
2022/12/22 08:03:27;;;;;;;1.80;1.10;;;17.50;47.90;;;;;;5059370;28;20213;-72
2022/12/22 08:05:54;;;;;;;2.22;1.10;;;17.60;48.00;;;;;;5059683;28;20210;-71
2022/12/22 08:08:21;;;;;;;3.15;1.38;;;17.60;48.50;;;;;;5059745;28;20214;-72
2022/12/22 08:10:48;;;;;;;2.17;1.23;;;17.60;48.00;;;;;;5077785;28;20197;-72
2022/12/22 08:13:15;;;;;;;1.10;1.00;;;17.60;47.90;;;;;;5059929;28;20265;-72
2022/12/22 08:15:43;;;;;;;1.88;1.10;;;17.70;47.90;;;;;;5059692;28;20205;-71
2022/12/22 08:18:11;;;;;;;2.35;1.30;;;17.60;48.40;;;;;;5059654;28;20344;-72
2022/12/22 08:20:38;;;;;;;1.52;1.10;;;17.70;47.80;;;;;;5059230;28;20704;-71
2022/12/22 08:23:05;;;;;;;2.00;1.10;;;17.70;47.70;;;;;;5059194;28;20203;-71
2022/12/22 08:25:32;;;;;;;1.75;1.20;;;17.70;47.60;;;;;;5059347;28;20199;-71
2022/12/22 08:27:59;;;;;;;1.95;1.08;;;17.80;47.60;;;;;;5059543;28;20218;-71
2022/12/22 08:30:26;;;;;;;2.45;1.05;;;17.80;47.40;;;;;;5059435;28;20206;-72
2022/12/22 08:32:54;;;;;;;2.28;1.30;;;17.80;47.50;;;;;;5059064;28;20199;-71
2022/12/22 08:35:22;;;;;;;1.83;1.40;;;17.80;47.50;;;;;;5076378;28;20199;-71
2022/12/22 08:37:50;;;;;;;2.15;1.27;;;17.80;47.50;;;;;;5059051;28;20218;-72
2022/12/22 08:40:19;;;;;;;1.27;1.08;;;17.80;47.60;;;;;;5060148;28;20676;-72
2022/12/22 08:42:47;;;;;;;1.20;1.10;;;17.80;47.60;;;;;;5076827;28;20190;-72
2022/12/22 08:45:13;;;;;;;1.15;1.00;;;17.80;47.50;;;;;;5076268;28;20202;-71
2022/12/22 08:47:41;;;;;;;1.30;1.00;;;17.80;47.50;;;;;;5079541;28;20218;-71
2022/12/22 08:50:09;;;;;;;1.77;1.30;;;17.80;47.50;;;;;;5077671;28;20191;-71
2022/12/22 08:52:37;;;;;;;1.42;1.33;;;17.80;47.40;;;;;;5079311;28;20256;-71
2022/12/22 08:55:05;;;;;;;2.60;1.65;;;17.90;47.50;;;;;;5075568;28;20190;-71
2022/12/22 08:57:32;;;;;;;2.03;1.83;;;17.90;47.50;;;;;;5059583;28;20309;-71
2022/12/22 08:59:59;;;;;;;3.08;1.90;;;17.90;47.50;;;;;;5059448;28;20210;-71
2022/12/22 09:02:26;;;;;;;1.63;1.30;;;17.90;47.50;;;;;;5058457;28;20210;-71
2022/12/22 09:04:54;;;;;;;2.13;1.50;;;17.90;47.50;;;;;;5058542;28;20198;-71
2022/12/22 09:07:21;;;;;;;1.50;1.40;;;17.90;47.60;;;;;;5058433;28;20252;-71
2022/12/22 09:09:49;;;;;;;2.38;1.48;;;18.00;47.60;;;;;;5059443;28;20187;-71
2022/12/22 09:12:16;;;;;;;1.40;1.23;;;18.00;47.40;;;;;;5058386;28;20202;-71
2022/12/22 09:14:44;;;;;;;1.20;1.10;;;18.00;47.40;;;;;;5058174;28;20248;-71
2022/12/22 09:17:10;;;;;;;1.35;1.20;;;18.10;47.40;;;;;;5058563;28;20226;-71
2022/12/22 09:19:38;;;;;;;2.15;1.00;;;18.10;47.20;;;;;;5042564;28;20226;-71
2022/12/22 09:22:05;;;;;;;1.85;1.23;;;18.20;47.10;;;;;;5058767;28;20684;-71
2022/12/22 09:24:32;;;;;;;2.20;1.17;;;18.20;47.20;;;;;;5058799;28;20195;-72
2022/12/22 09:27:02;;;;;;;1.77;1.02;;;18.20;47.20;;;;;;5075775;28;20225;-72
2022/12/22 09:29:29;;;;;;;2.00;1.20;;;18.20;47.10;;;;;;5058385;28;20306;-72
2022/12/22 09:31:56;;;;;;;1.10;1.00;;;18.20;47.20;;;;;;5058535;28;20187;-71
2022/12/22 09:34:23;;;;;;;2.45;1.30;;;18.20;47.30;;;;;;5058058;28;20573;-71
2022/12/22 09:36:50;;;;;;;3.15;1.30;;;18.10;47.30;;;;;;5075892;28;20214;-71
2022/12/22 09:39:17;;;;;;;2.60;1.40;;;18.20;47.20;;;;;;5058004;28;20214;-71
2022/12/22 09:41:46;;;;;;;2.78;1.20;;;18.10;47.20;;;;;;5074196;28;20218;-71
2022/12/22 09:44:21;;;;;;;3.33;1.38;;;18.20;47.20;;;;;;5074232;28;20278;-71
2022/12/22 09:46:47;;;;;;;1.50;1.20;;;18.20;47.10;;;;;;5058515;28;20202;-71
2022/12/22 09:49:16;;;;;;;1.98;1.25;;;18.10;47.20;;;;;;5057380;28;20697;-71
2022/12/22 09:51:43;;;;;;;1.88;1.20;;;18.20;47.40;;;;;;5057832;28;20203;-71
2022/12/22 09:54:11;;;;;;;2.30;1.40;;;18.20;47.30;;;;;;5075187;28;20190;-71
2022/12/22 09:56:39;;;;;;;1.77;1.15;;;18.20;47.40;;;;;;5057654;28;20217;-71
2022/12/22 09:59:09;;;;;;;2.03;1.48;;;18.20;47.00;;;;;;5073865;28;20233;-71
2022/12/22 10:01:46;;;;;;;2.15;1.48;;;18.20;47.70;;;;;;5075005;28;20206;-71
2022/12/22 10:04:16;;;;;;;2.03;1.30;;;18.30;47.20;;;;;;5057653;28;20206;-71
2022/12/22 10:06:47;;;;;;;1.95;1.00;;;18.20;47.20;;;;;;5056796;28;20675;-71
2022/12/22 10:09:16;;;;;;;2.20;1.40;;;18.30;47.20;;;;;;5073275;28;20218;-71
2022/12/22 10:11:50;;;;;;;1.30;0.90;;;18.30;47.20;;;;;;5073306;28;20202;-71
2022/12/22 10:14:17;;;;;;;2.03;1.20;;;18.30;47.00;;;;;;5056498;28;20187;-71
2022/12/22 10:16:46;;;;;;;1.67;0.90;;;18.20;47.10;;;;;;5056459;28;20213;-71
2022/12/22 10:19:14;;;;;;;1.40;0.98;;;18.30;47.20;;;;;;5056795;28;20214;-71
2022/12/22 10:21:41;;;;;;;2.45;1.25;;;18.30;47.10;;;;;;5056289;28;20211;-71
2022/12/22 10:24:18;;;;;;;1.45;1.10;;;18.30;47.10;;;;;;5056409;28;20195;-71
2022/12/22 10:26:45;;;;;;;2.13;1.17;;;18.40;47.10;;;;;;5074190;28;20637;-71
2022/12/22 10:29:13;;;;;;;2.72;1.20;;;18.40;47.10;;;;;;5056116;28;20217;-71
2022/12/22 10:34:35;;;;;;;1.52;1.17;;;18.40;47.00;;;;;;5174129;27;21052;-58
2022/12/22 10:37:02;;;;;;;1.30;1.02;;;18.40;46.80;;;;;;5152324;27;20695;-57
2022/12/22 10:39:31;;;;;;;2.83;1.05;;;18.50;47.20;;;;;;5135469;27;20280;-57
2022/12/22 10:42:01;;;;;;;1.98;1.35;;;18.50;47.20;;;;;;5131399;28;20645;-58
2022/12/22 10:44:28;;;;;;;1.20;1.08;;;18.40;47.10;;;;;;5131311;28;20184;-57
2022/12/22 10:46:57;;;;;;;1.30;1.10;;;18.40;47.20;;;;;;5112822;28;20197;-59
2022/12/22 10:49:25;;;;;;;1.38;1.10;;;18.40;47.20;;;;;;5131333;27;20205;-60
2022/12/22 10:51:54;;;;;;;2.08;1.17;;;18.50;47.20;;;;;;5112792;28;20683;-60
2022/12/22 10:54:41;;;;;;;1.33;1.08;;;18.50;47.20;;;;;;5112802;28;20553;-60
2022/12/22 10:57:25;;;;;;;1.42;1.10;;;18.50;47.10;;;;;;5113062;28;20246;-59
2022/12/22 10:59:53;;;;;;;1.45;1.05;;;18.50;47.20;;;;;;5112610;28;20241;-60
2022/12/22 11:02:42;;;;;;;2.13;1.17;;;18.50;47.20;;;;;;5130699;28;20199;-60
2022/12/22 11:05:12;;;;;;;1.30;1.08;;;18.50;47.10;;;;;;5112396;28;20197;-60
2022/12/22 11:07:42;;;;;;;1.25;1.10;;;18.50;47.00;;;;;;5131180;27;20706;-60
2022/12/22 11:10:17;;;;;;;1.75;1.05;;;18.60;47.10;;;;;;5112442;28;20242;-60
2022/12/22 11:12:55;;;;;;;1.40;0.93;;;18.60;46.90;;;;;;5130547;28;20213;-60
2022/12/22 11:15:23;;;;;;;1.10;1.00;;;18.60;47.40;;;;;;5130836;28;20199;-60
2022/12/22 11:17:55;;;;;;;1.45;1.10;;;18.60;46.90;;;;;;5130479;27;20660;-60
2022/12/22 11:20:31;;;;;;;1.80;1.00;;;18.60;47.00;;;;;;5130839;28;20638;-60
2022/12/22 11:23:01;;;;;;;1.02;1.02;;;18.60;47.10;;;;;;5130892;28;20165;-60
2022/12/22 11:25:34;;;;;;;1.30;1.13;;;18.60;47.00;;;;;;5130724;28;20173;-60
2022/12/22 11:28:14;;;;;;;1.08;0.90;;;18.60;47.00;;;;;;5112091;28;20301;-59
2022/12/22 11:30:44;;;;;;;1.45;1.10;;;18.60;46.80;;;;;;5130635;28;20263;-59
2022/12/22 11:33:32;;;;;;;2.13;1.20;;;18.60;46.90;;;;;;5111758;28;20311;-57
2022/12/22 11:36:03;;;;;;;0.90;0.90;;;18.70;46.60;;;;;;5111858;28;20192;-57
2022/12/22 11:38:45;;;;;;;1.55;1.00;;;18.70;46.80;;;;;;5130185;27;20598;-57
2022/12/22 11:41:19;;;;;;;1.05;0.90;;;18.70;46.80;;;;;;5111711;28;20629;-57
2022/12/22 11:43:53;;;;;;;2.15;1.30;;;18.70;46.70;;;;;;5128818;28;20604;-57
2022/12/22 11:46:23;;;;;;;1.48;0.90;;;18.70;46.90;;;;;;5097801;28;20266;-57
2022/12/22 11:48:58;;;;;;;1.45;1.10;;;18.70;46.80;;;;;;5116266;28;20201;-58
2022/12/22 11:51:37;;;;;;;1.88;1.23;;;18.70;47.40;;;;;;5097871;28;20666;-57
2022/12/22 11:54:34;;;;;;;1.25;1.00;;;18.70;46.70;;;;;;5116469;28;20201;-57
2022/12/22 11:57:06;;;;;;;1.25;0.98;;;18.70;46.60;;;;;;5116201;28;20230;-57
2022/12/22 11:59:39;;;;;;;1.20;1.10;;;18.80;46.70;;;;;;5097703;28;20255;-57
2022/12/22 12:02:40;;;;;;;1.38;1.00;;;18.70;46.60;;;;;;5116250;28;20650;-59
2022/12/22 12:05:28;;;;;;;1.00;0.80;;;18.80;46.60;;;;;;5097736;28;20633;-60
2022/12/22 12:07:57;;;;;;;1.13;1.02;;;18.80;46.60;;;;;;5097516;28;20217;-61
2022/12/22 12:10:27;;;;;;;1.17;0.80;;;18.80;46.70;;;;;;5115820;28;20189;-60
2022/12/22 12:12:56;;;;;;;0.95;0.85;;;18.80;46.40;;;;;;5115960;28;20190;-60
2022/12/22 12:15:29;;;;;;;1.30;1.00;;;18.70;46.40;;;;;;5115854;28;20272;-60
2022/12/22 12:18:06;;;;;;;2.60;1.40;;;18.80;46.50;;;;;;5097462;28;20209;-60
2022/12/22 12:20:42;;;;;;;1.20;1.10;;;18.80;46.30;;;;;;5116030;28;20209;-60
2022/12/22 12:23:25;;;;;;;1.23;1.00;;;18.80;46.10;;;;;;5097944;28;20185;-59
2022/12/22 12:25:56;;;;;;;2.10;1.20;;;18.90;46.50;;;;;;5115742;28;20257;-60
2022/12/22 12:28:27;;;;;;;1.45;1.10;;;18.90;46.50;;;;;;5115538;28;20262;-57
2022/12/22 12:30:55;;;;;;;1.27;0.93;;;18.90;46.40;;;;;;5115506;28;20575;-57
2022/12/22 12:33:30;;;;;;;0.73;0.73;;;18.90;46.20;;;;;;5115442;28;20255;-57
2022/12/22 12:36:01;;;;;;;1.38;0.82;;;19.00;46.20;;;;;;5115767;28;20196;-57
2022/12/22 12:38:32;;;;;;;0.93;0.90;;;19.00;46.10;;;;;;5097324;28;20308;-57
2022/12/22 12:41:03;;;;;;;1.15;1.05;;;19.00;46.00;;;;;;5097658;28;20583;-57
2022/12/22 12:43:31;;;;;;;1.30;1.08;;;19.00;46.10;;;;;;5117020;28;20173;-57
2022/12/22 12:45:57;;;;;;;0.77;0.77;;;19.00;45.80;;;;;;5116007;28;20253;-58
2022/12/22 12:48:39;;;;;;;1.13;1.02;;;19.00;45.80;;;;;;5097108;28;20638;-57
2022/12/22 12:51:39;;;;;;;1.15;0.70;;;19.10;45.80;;;;;;5099224;28;20316;-57
2022/12/22 12:54:22;;;;;;;1.80;0.85;;;19.10;45.90;;;;;;5102528;28;20228;-58
2022/12/22 12:56:59;;;;;;;0.90;0.90;;;19.10;45.80;;;;;;5096799;28;20201;-58
2022/12/22 12:59:45;;;;;;;0.90;0.68;;;19.10;45.70;;;;;;5115764;28;20209;-58
2022/12/22 13:02:31;;;;;;;1.27;1.10;;;19.10;45.90;;;;;;5097428;28;20200;-58
2022/12/22 13:05:11;;;;;;;0.82;0.82;;;19.10;45.90;;;;;;5116449;28;20249;-57
2022/12/22 13:08:10;;;;;;;1.05;0.90;;;19.10;45.90;;;;;;5097574;28;20219;-57
2022/12/22 13:10:40;;;;;;;0.77;0.77;;;19.10;45.80;;;;;;5115514;28;20181;-59
2022/12/22 13:13:12;;;;;;;1.15;1.08;;;19.10;46.00;;;;;;5096667;28;20189;-57
2022/12/22 13:15:40;;;;;;;1.30;0.80;;;19.10;46.10;;;;;;5115009;28;20173;-57
2022/12/22 13:18:11;;;;;;;1.60;1.00;;;19.00;46.10;;;;;;5114827;28;20212;-57
2022/12/22 13:20:39;;;;;;;1.00;0.90;;;19.10;46.10;;;;;;5114747;28;20174;-58
2022/12/22 13:23:10;;;;;;;1.10;0.90;;;19.10;45.80;;;;;;5096352;28;20189;-58
2022/12/22 13:25:41;;;;;;;1.63;1.05;;;19.20;46.10;;;;;;5114647;28;20615;-58
2022/12/22 13:28:14;;;;;;;0.90;0.90;;;19.20;45.90;;;;;;5114590;28;20209;-57
2022/12/22 13:30:41;;;;;;;0.85;0.85;;;19.20;45.70;;;;;;5096249;28;20631;-57
2022/12/22 13:33:09;;;;;;;1.08;0.77;;;19.20;45.50;;;;;;5095714;28;20197;-58
2022/12/22 13:35:37;;;;;;;1.20;0.90;;;19.20;45.50;;;;;;5114210;28;20209;-58
2022/12/22 13:38:04;;;;;;;0.85;0.85;;;19.20;45.70;;;;;;5114251;28;20304;-57
2022/12/22 13:40:32;;;;;;;1.65;1.08;;;19.20;45.70;;;;;;5114323;28;20193;-57
2022/12/22 13:43:01;;;;;;;0.77;0.75;;;19.20;45.50;;;;;;5114294;28;20254;-57
2022/12/22 13:45:33;;;;;;;1.60;0.90;;;19.20;45.50;;;;;;5095532;28;20190;-58
2022/12/22 13:48:00;;;;;;;0.80;0.80;;;19.20;45.70;;;;;;5114450;28;20262;-57
2022/12/22 13:50:30;;;;;;;1.10;1.00;;;19.30;45.70;;;;;;5113890;28;20255;-58
2022/12/22 13:52:57;;;;;;;0.93;0.82;;;19.20;45.70;;;;;;5113897;28;20204;-58
2022/12/22 13:55:25;;;;;;;0.80;0.80;;;19.30;45.80;;;;;;5095460;28;20241;-58
2022/12/22 13:57:53;;;;;;;0.65;0.60;;;19.30;45.60;;;;;;5113651;28;20258;-58
2022/12/22 14:00:21;;;;;;;1.00;0.82;;;19.30;45.70;;;;;;5095887;28;20220;-58
2022/12/22 14:02:50;;;;;;;0.90;0.90;;;19.20;45.60;;;;;;5114234;28;20205;-58
2022/12/22 14:05:17;;;;;;;0.82;0.82;;;19.30;45.90;;;;;;5095422;28;20200;-58
2022/12/22 14:08:00;;;;;;;0.88;0.80;;;19.20;45.80;;;;;;5113338;28;20194;-58
2022/12/22 14:10:29;;;;;;;1.65;0.73;;;19.20;45.70;;;;;;5110953;28;20209;-58
2022/12/22 14:12:57;;;;;;;1.00;0.90;;;19.20;45.70;;;;;;5113603;28;20733;-58
2022/12/22 14:15:24;;;;;;;1.30;0.80;;;19.20;45.80;;;;;;5095180;28;20213;-58
2022/12/22 14:17:53;;;;;;;1.60;1.08;;;19.20;45.80;;;;;;5113555;28;20234;-57
2022/12/22 14:20:21;;;;;;;1.00;0.82;;;19.20;45.80;;;;;;5095331;28;20201;-58
2022/12/22 14:22:50;;;;;;;1.35;1.00;;;19.20;45.90;;;;;;5113508;28;20677;-57
2022/12/22 14:25:18;;;;;;;0.90;0.90;;;19.20;45.80;;;;;;5095321;28;20197;-60
2022/12/22 14:27:47;;;;;;;0.70;0.70;;;19.20;45.90;;;;;;5113467;28;20742;-60
2022/12/22 14:30:16;;;;;;;1.35;0.90;;;19.20;45.90;;;;;;5113647;28;20246;-60
2022/12/22 14:32:44;;;;;;;1.20;0.98;;;19.20;45.90;;;;;;5095297;28;20328;-60
2022/12/22 14:35:28;;;;;;;1.10;1.00;;;19.20;45.90;;;;;;5113497;28;20205;-61
2022/12/22 14:37:55;;;;;;;0.82;0.82;;;19.20;45.80;;;;;;5095234;28;20317;-61
2022/12/22 14:40:31;;;;;;;1.33;0.95;;;19.20;45.90;;;;;;5113725;28;20193;-60
2022/12/22 14:43:00;;;;;;;0.70;0.70;;;19.20;45.90;;;;;;5095427;28;20205;-61
2022/12/22 14:45:27;;;;;;;0.80;0.80;;;19.20;46.00;;;;;;5095465;28;20189;-61
2022/12/22 14:47:55;;;;;;;1.35;1.10;;;19.10;45.70;;;;;;5113700;28;20197;-60
2022/12/22 14:50:24;;;;;;;2.83;1.08;;;19.10;45.90;;;;;;5114009;28;20196;-61
2022/12/22 14:52:51;;;;;;;1.27;1.00;;;19.10;45.90;;;;;;5114052;28;20186;-61
2022/12/22 14:55:23;;;;;;;1.05;0.90;;;19.10;45.90;;;;;;5095205;28;20266;-61
2022/12/22 14:57:52;;;;;;;1.50;1.00;;;19.10;45.90;;;;;;5113485;28;20613;-61
2022/12/22 15:00:29;;;;;;;2.25;1.00;;;19.10;45.80;;;;;;5114115;28;20699;-61
2022/12/22 15:02:59;;;;;;;1.58;1.13;;;19.10;46.10;;;;;;5113915;28;20174;-60
2022/12/22 15:05:28;;;;;;;1.25;1.13;;;19.10;46.10;;;;;;5113534;28;20568;-60
2022/12/22 15:07:56;;;;;;;1.40;1.00;;;19.00;46.00;;;;;;5113573;28;20214;-61
2022/12/22 15:10:24;;;;;;;1.42;1.00;;;19.00;46.10;;;;;;5113442;28;20190;-60
2022/12/22 15:12:52;;;;;;;2.17;1.17;;;19.00;46.10;;;;;;5094950;28;20189;-60
2022/12/22 15:15:20;;;;;;;1.65;1.10;;;19.00;46.10;;;;;;5113227;28;20209;-60
2022/12/22 15:17:49;;;;;;;1.33;1.13;;;19.00;46.10;;;;;;5113525;28;20189;-60
2022/12/22 15:20:18;;;;;;;1.08;0.90;;;19.00;46.10;;;;;;5115144;28;20666;-60
2022/12/22 15:22:47;;;;;;;1.25;0.90;;;19.00;46.10;;;;;;5117184;28;20193;-57
2022/12/22 15:25:15;;;;;;;1.02;0.90;;;19.00;46.10;;;;;;5117076;28;20186;-58
2022/12/22 15:27:42;;;;;;;1.83;1.10;;;19.00;46.20;;;;;;5098574;28;20197;-57
2022/12/22 15:30:10;;;;;;;1.65;1.13;;;19.00;46.20;;;;;;5099372;28;20221;-57
2022/12/22 15:32:37;;;;;;;2.05;1.10;;;18.90;46.20;;;;;;5117539;28;20234;-57
2022/12/22 15:35:17;;;;;;;2.58;1.15;;;18.90;46.20;;;;;;5117899;28;20190;-58
2022/12/22 15:37:44;;;;;;;1.70;1.20;;;18.90;46.40;;;;;;5122365;28;20184;-60
2022/12/22 15:40:20;;;;;;;1.48;1.00;;;18.80;46.40;;;;;;5117571;28;20193;-60
2022/12/22 15:42:48;;;;;;;1.73;1.15;;;18.80;46.40;;;;;;5116993;28;20177;-60
2022/12/22 15:45:15;;;;;;;2.25;1.10;;;18.80;46.40;;;;;;5098384;28;20246;-60
2022/12/22 15:47:43;;;;;;;1.30;1.10;;;18.80;46.40;;;;;;5116660;28;20196;-60
2022/12/22 15:50:14;;;;;;;1.27;0.95;;;18.80;46.40;;;;;;5116472;28;20185;-60
2022/12/22 15:52:41;;;;;;;1.63;1.13;;;18.80;46.40;;;;;;5116686;28;20253;-60
2022/12/22 15:55:10;;;;;;;1.52;1.13;;;18.80;46.40;;;;;;5097836;28;20698;-60
2022/12/22 15:57:38;;;;;;;1.40;1.17;;;18.80;46.40;;;;;;5115986;28;20662;-60
2022/12/22 16:00:06;;;;;;;1.92;1.20;;;18.80;46.40;;;;;;5116180;28;20209;-61
2022/12/22 16:02:33;;;;;;;1.02;0.90;;;18.80;46.40;;;;;;5115988;28;20190;-60
2022/12/22 16:05:01;;;;;;;2.55;1.20;;;18.80;46.40;;;;;;5097592;28;20567;-60
2022/12/22 16:07:28;;;;;;;1.35;1.05;;;18.80;46.40;;;;;;5097765;28;20224;-60
2022/12/22 16:09:55;;;;;;;1.85;1.30;;;18.80;46.40;;;;;;5097438;28;20213;-60
2022/12/22 16:12:22;;;;;;;1.90;1.10;;;18.70;46.40;;;;;;5115805;28;20192;-60
2022/12/22 16:14:53;;;;;;;1.25;0.95;;;18.80;46.40;;;;;;5115528;28;20291;-60
2022/12/22 16:17:22;;;;;;;2.58;1.40;;;18.80;46.40;;;;;;5115924;28;20643;-60
2022/12/22 16:19:49;;;;;;;1.88;1.10;;;18.80;46.40;;;;;;5097737;28;20645;-60
2022/12/22 16:22:18;;;;;;;1.20;1.10;;;18.70;46.40;;;;;;5115677;28;20268;-60
2022/12/22 16:24:46;;;;;;;1.35;1.10;;;18.70;46.40;;;;;;5097388;28;20563;-60
2022/12/22 16:27:13;;;;;;;2.55;1.35;;;18.70;46.50;;;;;;5115836;28;20225;-60
2022/12/22 16:29:43;;;;;;;1.88;1.48;;;18.70;46.40;;;;;;5115528;28;20216;-60
2022/12/22 16:32:19;;;;;;;2.30;1.45;;;18.70;46.50;;;;;;5115366;28;20189;-59
2022/12/22 16:34:47;;;;;;;2.13;1.23;;;18.70;46.50;;;;;;5115363;28;20821;-60
2022/12/22 16:37:14;;;;;;;2.13;1.27;;;18.70;46.40;;;;;;5115400;28;20666;-60
2022/12/22 16:39:41;;;;;;;1.77;1.10;;;18.70;46.50;;;;;;5096967;28;20214;-60